createdAt,value
2022-11-16T00:01:00.471Z,10.10
2022-11-16T00:03:04.219Z,10.08
2022-11-16T00:05:07.887Z,10.07
2022-11-16T00:07:11.439Z,10.12
2022-11-16T00:09:23.230Z,10.15
2022-11-16T00:11:26.273Z,9.68
2022-11-16T00:13:29.140Z,10.18
2022-11-16T00:15:32.054Z,10.14
2022-11-16T00:17:36.628Z,2.40
2022-11-16T00:19:39.509Z,10.13
2022-11-16T00:21:46.175Z,8.60
2022-11-16T00:23:49.173Z,10.26
2022-11-16T00:25:53.301Z,10.30
2022-11-16T00:27:56.184Z,10.31
2022-11-16T00:29:59.151Z,10.32
2022-11-16T00:32:02.144Z,10.35
2022-11-16T00:34:06.766Z,9.68
2022-11-16T00:36:12.087Z,10.38
2022-11-16T00:38:15.013Z,10.38
2022-11-16T00:40:19.497Z,10.37
2022-11-16T00:42:22.393Z,9.97
2022-11-16T00:44:26.389Z,9.04
2022-11-16T00:46:29.366Z,8.61
2022-11-16T00:48:32.799Z,10.40
2022-11-16T00:50:37.342Z,10.37
2022-11-16T00:52:40.447Z,10.32
2022-11-16T00:54:43.810Z,9.47
2022-11-16T00:56:46.833Z,10.25
2022-11-16T00:58:49.840Z,10.20
2022-11-16T01:00:53.174Z,8.45
2022-11-16T01:02:56.262Z,10.23
2022-11-16T01:05:00.578Z,10.21
2022-11-16T01:07:06.650Z,10.20
2022-11-16T01:09:09.507Z,10.18
2022-11-16T01:11:32.481Z,10.19
2022-11-16T01:13:35.320Z,7.28
2022-11-16T01:15:38.237Z,10.22
2022-11-16T01:17:42.799Z,6.09
2022-11-16T01:19:45.726Z,10.20
2022-11-16T01:21:48.580Z,10.23
2022-11-16T01:23:53.913Z,10.22
2022-11-16T01:25:57.665Z,10.24
2022-11-16T01:28:01.698Z,10.25
2022-11-16T01:30:16.913Z,10.22
2022-11-16T01:32:28.742Z,10.21
2022-11-16T01:34:31.667Z,10.20
2022-11-16T01:36:41.107Z,10.21
2022-11-16T01:38:45.589Z,8.35
2022-11-16T01:40:50.545Z,9.64
2022-11-16T01:42:53.552Z,9.99
2022-11-16T01:45:16.842Z,9.86
2022-11-16T01:47:19.957Z,10.02
2022-11-16T01:49:24.925Z,10.06
2022-11-16T01:51:32.228Z,10.04
2022-11-16T01:53:35.781Z,10.07
2022-11-16T01:55:38.595Z,10.12
2022-11-16T01:57:51.352Z,10.14
2022-11-16T01:59:58.799Z,10.16
2022-11-16T02:02:05.819Z,9.74
2022-11-16T02:04:11.091Z,10.18
2022-11-16T02:06:42.637Z,10.19
2022-11-16T02:09:17.947Z,10.17
2022-11-16T02:11:57.479Z,9.85
2022-11-16T02:14:16.213Z,10.21
2022-11-16T02:16:30.552Z,10.20
2022-11-16T02:18:39.744Z,10.16
2022-11-16T02:21:06.454Z,7.96
2022-11-16T02:23:36.924Z,10.07
2022-11-16T02:25:51.206Z,10.04
2022-11-16T02:28:11.117Z,10.09
2022-11-16T02:30:15.523Z,10.10
2022-11-16T02:32:26.401Z,10.11
2022-11-16T02:34:34.265Z,9.96
2022-11-16T02:36:39.772Z,10.15
2022-11-16T02:38:49.462Z,10.19
2022-11-16T02:40:57.843Z,9.87
2022-11-16T02:43:08.285Z,7.74
2022-11-16T02:45:15.182Z,10.18
2022-11-16T02:47:24.189Z,10.16
2022-11-16T02:49:29.875Z,9.29
2022-11-16T02:51:35.850Z,10.17
2022-11-16T02:53:43.864Z,10.17
2022-11-16T02:55:47.912Z,7.49
2022-11-16T02:57:54.371Z,10.21
2022-11-16T02:59:58.974Z,9.81
2022-11-16T03:02:15.087Z,10.23
2022-11-16T03:04:27.309Z,10.24
2022-11-16T03:06:34.072Z,10.22
2022-11-16T03:08:41.310Z,10.20
2022-11-16T03:11:08.726Z,9.60
2022-11-16T03:13:13.582Z,10.19
2022-11-16T03:15:16.383Z,10.17
2022-11-16T03:17:23.636Z,10.20
2022-11-16T03:19:34.418Z,9.39
2022-11-16T03:21:40.798Z,9.52
2022-11-16T03:23:45.904Z,10.35
2022-11-16T03:25:52.750Z,10.28
2022-11-16T03:28:06.090Z,10.41
2022-11-16T03:30:12.080Z,6.62
2022-11-16T03:32:23.604Z,10.28
2022-11-16T03:34:34.506Z,6.97
2022-11-16T03:36:41.745Z,9.81
2022-11-16T03:38:50.567Z,9.04
2022-11-16T03:40:57.080Z,10.25
2022-11-16T03:43:02.475Z,10.21
2022-11-16T03:45:06.437Z,9.81
2022-11-16T03:47:09.111Z,8.84
2022-11-16T03:49:11.877Z,10.14
2022-11-16T03:51:15.981Z,10.14
2022-11-16T03:53:18.996Z,10.15
2022-11-16T03:55:22.740Z,10.16
2022-11-16T03:57:25.470Z,10.19
2022-11-16T03:59:31.743Z,9.54
2022-11-16T04:01:39.213Z,10.16
2022-11-16T04:03:46.037Z,9.70
2022-11-16T04:06:07.270Z,10.10
2022-11-16T04:08:33.312Z,10.18
2022-11-16T04:10:53.885Z,10.08
2022-11-16T04:13:15.781Z,10.12
2022-11-16T04:15:36.750Z,9.82
2022-11-16T04:17:57.210Z,9.87
2022-11-16T04:20:17.469Z,10.05
2022-11-16T04:22:41.870Z,10.07
2022-11-16T04:24:50.338Z,9.28
2022-11-16T04:27:14.485Z,10.19
2022-11-16T04:29:17.273Z,10.17
2022-11-16T04:31:38.319Z,10.13
2022-11-16T04:34:03.041Z,9.37
2022-11-16T04:36:23.979Z,9.04
2022-11-16T04:38:26.892Z,10.21
2022-11-16T04:40:31.095Z,10.24
2022-11-16T04:42:33.607Z,10.26
2022-11-16T04:44:54.692Z,10.31
2022-11-16T04:47:09.104Z,10.30
2022-11-16T04:49:14.205Z,10.30
2022-11-16T04:51:17.155Z,10.34
2022-11-16T04:53:22.373Z,10.34
2022-11-16T04:55:32.980Z,10.35
2022-11-16T04:57:35.636Z,10.37
2022-11-16T04:59:39.631Z,10.33
2022-11-16T05:01:59.882Z,10.29
2022-11-16T05:04:03.102Z,10.23
2022-11-16T05:06:06.178Z,10.25
2022-11-16T05:08:09.988Z,10.20
2022-11-16T05:10:14.204Z,10.20
2022-11-16T05:12:21.142Z,10.20
2022-11-16T05:14:26.948Z,10.20
2022-11-16T05:16:30.678Z,10.20
2022-11-16T05:18:33.796Z,10.19
2022-11-16T05:20:55.419Z,10.21
2022-11-16T05:22:59.671Z,10.25
2022-11-16T05:25:08.139Z,10.25
2022-11-16T05:27:13.582Z,9.57
2022-11-16T05:29:18.212Z,10.31
2022-11-16T05:31:21.010Z,10.35
2022-11-16T05:33:24.504Z,10.35
2022-11-16T05:35:27.650Z,8.12
2022-11-16T05:37:30.458Z,10.39
2022-11-16T05:39:34.118Z,10.26
2022-11-16T05:41:36.874Z,8.04
2022-11-16T05:43:39.927Z,10.36
2022-11-16T05:45:55.093Z,10.26
2022-11-16T05:47:57.915Z,9.78
2022-11-16T05:50:00.607Z,9.98
2022-11-16T05:52:08.061Z,9.48
2022-11-16T05:54:13.641Z,9.73
2022-11-16T05:56:17.071Z,8.86
2022-11-16T05:58:19.818Z,9.93
2022-11-16T06:00:24.531Z,9.96
2022-11-16T06:02:30.561Z,10.11
2022-11-16T06:04:33.990Z,9.27
2022-11-16T06:06:37.122Z,10.10
2022-11-16T06:08:39.860Z,10.11
2022-11-16T06:10:46.220Z,10.18
2022-11-16T06:12:49.005Z,10.21
2022-11-16T06:14:51.864Z,10.25
2022-11-16T06:16:54.598Z,10.19
2022-11-16T06:18:58.757Z,10.14
2022-11-16T06:21:01.533Z,10.11
2022-11-16T06:23:04.385Z,10.11
2022-11-16T06:25:08.210Z,10.13
2022-11-16T06:27:15.964Z,10.05
2022-11-16T06:29:20.837Z,10.04
2022-11-16T06:31:23.696Z,10.06
2022-11-16T06:33:32.209Z,8.17
2022-11-16T06:35:38.311Z,10.11
2022-11-16T06:37:41.065Z,10.03
2022-11-16T06:39:44.090Z,9.96
2022-11-16T06:41:47.005Z,9.65
2022-11-16T06:43:50.043Z,9.71
2022-11-16T06:45:57.687Z,9.71
2022-11-16T06:48:00.516Z,9.72
2022-11-16T06:50:03.500Z,6.32
2022-11-16T06:52:07.858Z,9.32
2022-11-16T06:54:10.789Z,9.24
2022-11-16T06:56:16.024Z,9.37
2022-11-16T06:58:24.217Z,9.39
2022-11-16T07:00:27.769Z,9.35
2022-11-16T07:02:31.105Z,9.54
2022-11-16T07:04:38.274Z,9.51
2022-11-16T07:06:41.516Z,9.43
2022-11-16T07:08:46.472Z,9.22
2022-11-16T07:10:52.842Z,9.24
2022-11-16T07:12:55.648Z,9.18
2022-11-16T07:14:59.783Z,9.22
2022-11-16T07:17:09.315Z,9.25
2022-11-16T07:19:12.377Z,9.37
2022-11-16T07:21:17.742Z,5.02
2022-11-16T07:23:21.047Z,9.09
2022-11-16T07:25:25.178Z,9.26
2022-11-16T07:27:29.052Z,9.23
2022-11-16T07:29:31.804Z,9.13
2022-11-16T07:31:56.069Z,9.10
2022-11-16T07:34:17.904Z,9.35
2022-11-16T07:36:29.153Z,9.56
2022-11-16T07:38:33.187Z,7.78
2022-11-16T07:40:37.490Z,9.33
2022-11-16T07:42:40.266Z,9.31
2022-11-16T07:44:51.239Z,9.66
2022-11-16T07:46:54.924Z,9.97
2022-11-16T07:48:58.894Z,10.00
2022-11-16T07:51:21.084Z,10.27
2022-11-16T07:53:37.793Z,10.06
2022-11-16T07:55:41.879Z,10.17
2022-11-16T07:57:50.365Z,10.14
2022-11-16T07:59:55.855Z,10.22
2022-11-16T08:01:59.279Z,10.23
2022-11-16T08:04:03.205Z,10.29
2022-11-16T08:06:07.853Z,10.35
2022-11-16T08:08:11.812Z,10.18
2022-11-16T08:10:15.778Z,10.21
2022-11-16T08:12:20.088Z,10.13
2022-11-16T08:14:23.182Z,9.77
2022-11-16T08:16:27.900Z,10.34
2022-11-16T08:18:40.687Z,10.11
2022-11-16T08:20:43.426Z,10.08
2022-11-16T08:22:46.400Z,8.47
2022-11-16T08:24:49.357Z,9.90
2022-11-16T08:26:54.225Z,-0.13
2022-11-16T08:28:58.438Z,10.40
2022-11-16T08:31:09.741Z,10.51
2022-11-16T08:33:13.701Z,8.57
2022-11-16T08:35:16.508Z,10.28
2022-11-16T08:37:20.616Z,9.77
2022-11-16T08:39:24.316Z,10.44
2022-11-16T08:41:27.569Z,10.55
2022-11-16T08:43:31.054Z,10.81
2022-11-16T08:45:35.313Z,11.08
2022-11-16T08:47:38.093Z,11.01
2022-11-16T08:49:46.663Z,10.88
2022-11-16T08:51:52.821Z,11.60
2022-11-16T08:53:57.387Z,11.79
2022-11-16T08:56:04.664Z,11.96
2022-11-16T08:58:07.552Z,12.08
2022-11-16T09:00:11.900Z,12.08
2022-11-16T09:02:16.194Z,12.30
2022-11-16T09:04:19.546Z,12.44
2022-11-16T09:06:23.634Z,12.42
2022-11-16T09:08:26.406Z,12.33
2022-11-16T09:10:29.156Z,12.23
2022-11-16T09:12:31.899Z,11.54
2022-11-16T09:14:34.579Z,11.98
2022-11-16T09:16:37.402Z,12.30
2022-11-16T09:18:41.477Z,12.37
2022-11-16T09:20:44.834Z,12.35
2022-11-16T09:22:47.644Z,12.70
2022-11-16T09:24:50.469Z,12.94
2022-11-16T09:26:53.229Z,12.89
2022-11-16T09:28:58.354Z,12.95
2022-11-16T09:31:02.900Z,13.15
2022-11-16T09:33:05.657Z,13.12
2022-11-16T09:35:10.728Z,12.44
2022-11-16T09:37:13.446Z,13.19
2022-11-16T09:39:32.253Z,13.15
2022-11-16T09:41:52.528Z,13.05
2022-11-16T09:44:02.542Z,12.32
2022-11-16T09:46:16.080Z,12.57
2022-11-16T09:48:20.955Z,10.38
2022-11-16T09:50:42.267Z,11.50
2022-11-16T09:52:49.400Z,11.19
2022-11-16T09:54:54.318Z,11.47
2022-11-16T09:57:01.088Z,13.24
2022-11-16T09:59:06.973Z,4.16
2022-11-16T10:01:22.699Z,10.72
2022-11-16T10:03:26.919Z,13.55
2022-11-16T10:05:39.198Z,13.73
2022-11-16T10:07:46.101Z,14.01
2022-11-16T10:09:49.053Z,14.10
2022-11-16T10:12:16.434Z,14.09
2022-11-16T10:14:43.499Z,13.78
2022-11-16T10:16:53.751Z,11.07
2022-11-16T10:18:59.593Z,13.93
2022-11-16T10:21:15.181Z,14.06
2022-11-16T10:23:30.739Z,14.18
2022-11-16T10:25:43.106Z,14.29
2022-11-16T10:28:06.827Z,14.25
2022-11-16T10:30:14.035Z,14.16
2022-11-16T10:32:25.998Z,14.51
2022-11-16T10:34:32.593Z,14.84
2022-11-16T10:36:38.145Z,14.84
2022-11-16T10:38:42.522Z,14.28
2022-11-16T10:40:51.045Z,14.83
2022-11-16T10:43:02.128Z,14.27
2022-11-16T10:45:14.215Z,14.03
2022-11-16T10:47:23.559Z,13.91
2022-11-16T10:49:34.211Z,13.16
2022-11-16T10:51:38.333Z,14.42
2022-11-16T10:53:42.432Z,14.74
2022-11-16T10:55:45.134Z,14.73
2022-11-16T10:57:58.852Z,14.80
2022-11-16T11:00:02.640Z,12.96
2022-11-16T11:02:27.803Z,15.33
2022-11-16T11:04:32.716Z,13.61
2022-11-16T11:06:35.611Z,15.49
2022-11-16T11:08:39.718Z,15.72
2022-11-16T11:10:43.179Z,15.88
2022-11-16T11:13:02.185Z,16.10
2022-11-16T11:15:24.392Z,16.13
2022-11-16T11:17:29.869Z,14.40
2022-11-16T11:19:32.541Z,14.64
2022-11-16T11:21:35.750Z,14.97
2022-11-16T11:23:48.687Z,10.07
2022-11-16T11:25:54.233Z,15.01
2022-11-16T11:28:06.564Z,15.50
2022-11-16T11:30:20.972Z,14.63
2022-11-16T11:32:26.618Z,14.09
2022-11-16T11:34:31.370Z,15.22
2022-11-16T11:36:38.589Z,15.34
2022-11-16T11:39:00.052Z,15.51
2022-11-16T11:41:05.453Z,15.73
2022-11-16T11:43:22.920Z,16.13
2022-11-16T11:45:37.643Z,16.62
2022-11-16T11:48:02.957Z,16.28
2022-11-16T11:50:15.053Z,15.51
2022-11-16T11:52:22.533Z,15.99
2022-11-16T11:54:30.656Z,16.27
2022-11-16T11:56:34.316Z,15.54
2022-11-16T11:58:40.727Z,15.40
2022-11-16T12:00:53.121Z,15.78
2022-11-16T12:03:22.094Z,16.27
2022-11-16T12:05:36.588Z,16.77
2022-11-16T12:07:52.656Z,15.72
2022-11-16T12:10:08.017Z,14.44
2022-11-16T12:12:27.298Z,16.30
2022-11-16T12:14:43.102Z,13.05
2022-11-16T12:16:52.149Z,13.95
2022-11-16T12:19:11.397Z,12.20
2022-11-16T12:21:15.527Z,13.83
2022-11-16T12:23:33.047Z,10.58
2022-11-16T12:25:47.853Z,14.54
2022-11-16T12:28:04.586Z,15.10
2022-11-16T12:30:12.607Z,15.25
2022-11-16T12:32:29.992Z,15.20
2022-11-16T12:34:45.061Z,14.85
2022-11-16T12:36:55.209Z,15.10
2022-11-16T12:39:08.777Z,16.14
2022-11-16T12:41:47.664Z,16.81
2022-11-16T12:44:00.396Z,15.17
2022-11-16T12:46:12.675Z,15.08
2022-11-16T12:48:37.520Z,14.63
2022-11-16T12:50:51.387Z,15.05
2022-11-16T12:53:10.478Z,15.63
2022-11-16T12:55:26.723Z,15.06
2022-11-16T12:57:40.746Z,15.42
2022-11-16T13:00:06.666Z,15.47
2022-11-16T13:02:23.449Z,16.23
2022-11-16T13:04:31.421Z,15.73
2022-11-16T13:06:39.672Z,16.43
2022-11-16T13:08:49.399Z,17.01
2022-11-16T13:11:05.608Z,17.30
2022-11-16T13:13:35.443Z,15.64
2022-11-16T13:15:42.436Z,14.64
2022-11-16T13:17:51.157Z,15.04
2022-11-16T13:20:14.229Z,15.63
2022-11-16T13:22:22.978Z,15.58
2022-11-16T13:24:38.606Z,15.49
2022-11-16T13:26:49.073Z,15.62
2022-11-16T13:28:58.073Z,15.60
2022-11-16T13:31:09.595Z,16.13
2022-11-16T13:33:27.723Z,15.48
2022-11-16T13:35:30.923Z,16.73
2022-11-16T13:37:47.149Z,15.91
2022-11-16T13:40:20.694Z,16.33
2022-11-16T13:42:23.420Z,15.52
2022-11-16T13:44:30.822Z,13.43
2022-11-16T13:47:01.039Z,16.72
2022-11-16T13:49:04.215Z,17.01
2022-11-16T13:51:10.289Z,16.94
2022-11-16T13:55:47.262Z,16.51
2022-11-16T13:57:53.073Z,16.45
2022-11-16T14:00:11.000Z,16.04
2022-11-16T14:04:56.016Z,17.11
2022-11-16T14:07:00.934Z,17.78
2022-11-16T14:09:04.880Z,17.00
2022-11-16T14:11:29.675Z,17.39
2022-11-16T14:13:40.549Z,15.88
2022-11-16T14:15:43.282Z,18.95
2022-11-16T14:17:54.773Z,19.15
2022-11-16T14:19:58.880Z,19.06
2022-11-16T14:22:09.101Z,18.84
2022-11-16T14:24:23.106Z,18.78
2022-11-16T14:26:35.495Z,18.15
2022-11-16T14:29:15.391Z,18.81
2022-11-16T14:31:24.698Z,18.93
2022-11-16T14:33:33.072Z,18.30
2022-11-16T14:35:39.921Z,11.94
2022-11-16T14:37:43.348Z,18.18
2022-11-16T14:39:46.784Z,18.08
2022-11-16T14:41:49.713Z,17.97
2022-11-16T14:43:56.231Z,17.54
2022-11-16T14:46:03.228Z,17.26
2022-11-16T14:48:14.813Z,16.10
2022-11-16T14:50:23.153Z,16.20
2022-11-16T14:52:36.105Z,15.87
2022-11-16T14:54:43.205Z,15.53
2022-11-16T14:56:57.633Z,15.42
2022-11-16T14:59:02.458Z,15.31
2022-11-16T15:01:07.816Z,12.47
2022-11-16T15:03:12.951Z,14.64
2022-11-16T15:05:18.702Z,14.61
2022-11-16T15:07:24.023Z,13.41
2022-11-16T15:09:30.813Z,13.90
2022-11-16T15:11:54.934Z,14.13
2022-11-16T15:13:57.757Z,13.37
2022-11-16T15:16:11.309Z,10.88
2022-11-16T15:18:18.387Z,14.20
2022-11-16T15:20:22.759Z,12.97
2022-11-16T15:22:27.811Z,7.60
2022-11-16T15:24:33.816Z,12.66
2022-11-16T15:26:39.350Z,13.40
2022-11-16T15:28:47.184Z,12.98
2022-11-16T15:30:54.856Z,12.78
2022-11-16T15:32:57.795Z,12.97
2022-11-16T15:35:05.096Z,12.75
2022-11-16T15:37:11.822Z,12.56
2022-11-16T15:39:19.611Z,12.56
2022-11-16T15:41:25.381Z,9.32
2022-11-16T15:43:32.571Z,12.29
2022-11-16T15:45:37.425Z,9.63
2022-11-16T15:47:41.219Z,12.17
2022-11-16T15:49:44.589Z,12.14
2022-11-16T15:51:47.290Z,12.07
2022-11-16T15:53:51.674Z,10.52
2022-11-16T15:55:54.518Z,12.09
2022-11-16T15:58:05.209Z,6.78
2022-11-16T16:00:23.648Z,10.28
2022-11-16T16:02:29.572Z,11.14
2022-11-16T16:04:32.431Z,9.74
2022-11-16T16:06:47.282Z,11.70
2022-11-16T16:09:05.385Z,11.63
2022-11-16T16:11:12.382Z,8.98
2022-11-16T16:13:27.990Z,11.49
2022-11-16T16:15:33.870Z,11.39
2022-11-16T16:17:36.621Z,11.10
2022-11-16T16:19:42.960Z,11.02
2022-11-16T16:21:47.387Z,10.83
2022-11-16T16:23:52.103Z,10.91
2022-11-16T16:25:54.775Z,10.93
2022-11-16T16:27:58.111Z,10.45
2022-11-16T16:30:06.173Z,10.95
2022-11-16T16:32:14.421Z,10.87
2022-11-16T16:34:17.901Z,10.18
2022-11-16T16:36:20.597Z,10.43
2022-11-16T16:38:23.286Z,10.43
2022-11-16T16:40:26.385Z,10.53
2022-11-16T16:42:29.162Z,9.84
2022-11-16T16:44:32.029Z,10.67
2022-11-16T16:46:36.098Z,10.70
2022-11-16T16:48:44.357Z,4.37
2022-11-16T16:50:47.646Z,9.32
2022-11-16T16:52:50.427Z,10.77
2022-11-16T16:54:53.096Z,10.76
2022-11-16T16:56:56.140Z,10.74
2022-11-16T16:58:58.855Z,10.68
2022-11-16T17:01:05.476Z,5.62
2022-11-16T17:03:09.621Z,10.66
2022-11-16T17:05:12.481Z,10.60
2022-11-16T17:07:15.648Z,3.54
2022-11-16T17:09:18.569Z,10.55
2022-11-16T17:11:21.343Z,10.55
2022-11-16T17:13:24.104Z,10.55
2022-11-16T17:15:26.900Z,10.55
2022-11-16T17:17:29.701Z,10.51
2022-11-16T17:19:33.778Z,10.34
2022-11-16T17:21:36.583Z,10.40
2022-11-16T17:23:39.359Z,10.40
2022-11-16T17:25:42.112Z,10.33
2022-11-16T17:27:44.821Z,10.26
2022-11-16T17:29:47.574Z,10.15
2022-11-16T17:31:50.305Z,10.11
2022-11-16T17:33:53.510Z,10.05
2022-11-16T17:35:58.832Z,6.12
2022-11-16T17:38:01.465Z,9.26
2022-11-16T17:40:04.295Z,9.77
2022-11-16T17:42:07.181Z,9.76
2022-11-16T17:44:11.733Z,9.73
2022-11-16T17:46:17.582Z,9.69
2022-11-16T17:48:20.243Z,9.66
2022-11-16T17:50:22.897Z,4.53
2022-11-16T17:52:27.348Z,9.68
2022-11-16T17:54:30.075Z,9.69
2022-11-16T17:56:32.747Z,9.68
2022-11-16T17:58:35.664Z,9.65
2022-11-16T18:00:38.305Z,6.41
2022-11-16T18:02:40.973Z,9.72
2022-11-16T18:04:48.117Z,9.78
2022-11-16T18:06:53.546Z,9.59
2022-11-16T18:08:58.065Z,8.51
2022-11-16T18:11:05.093Z,9.83
2022-11-16T18:13:07.950Z,9.92
2022-11-16T18:15:27.850Z,5.11
2022-11-16T18:17:34.704Z,9.84
2022-11-16T18:19:37.474Z,9.89
2022-11-16T18:21:41.301Z,9.93
2022-11-16T18:23:44.147Z,9.56
2022-11-16T18:25:48.256Z,9.02
2022-11-16T18:27:53.072Z,9.93
2022-11-16T18:29:55.897Z,9.91
2022-11-16T18:31:58.697Z,7.54
2022-11-16T18:34:02.786Z,8.65
2022-11-16T18:36:06.624Z,7.56
2022-11-16T18:38:12.923Z,9.51
2022-11-16T18:40:15.931Z,6.36
2022-11-16T18:42:20.029Z,3.95
2022-11-16T18:44:22.892Z,9.56
2022-11-16T18:46:27.417Z,7.50
2022-11-16T18:48:30.128Z,6.69
2022-11-16T18:50:32.861Z,9.65
2022-11-16T18:52:35.621Z,9.57
2022-11-16T18:54:38.426Z,3.73
2022-11-16T18:56:41.189Z,9.51
2022-11-16T18:58:53.589Z,9.51
2022-11-16T19:01:03.275Z,9.49
2022-11-16T19:03:09.986Z,9.49
2022-11-16T19:05:14.156Z,7.73
2022-11-16T19:07:16.969Z,9.40
2022-11-16T19:09:19.768Z,9.39
2022-11-16T19:11:23.189Z,7.87
2022-11-16T19:13:25.881Z,9.33
2022-11-16T19:15:29.968Z,7.05
2022-11-16T19:17:32.781Z,9.31
2022-11-16T19:19:35.497Z,9.30
2022-11-16T19:21:38.925Z,3.78
2022-11-16T19:23:43.029Z,5.41
2022-11-16T19:25:45.879Z,6.31
2022-11-16T19:27:48.628Z,9.12
2022-11-16T19:29:51.394Z,3.67
2022-11-16T19:31:55.511Z,9.09
2022-11-16T19:33:59.605Z,3.40
2022-11-16T19:36:07.660Z,9.02
2022-11-16T19:38:10.430Z,7.97
2022-11-16T19:40:13.859Z,8.97
2022-11-16T19:42:16.687Z,7.18
2022-11-16T19:44:19.973Z,8.83
2022-11-16T19:46:24.274Z,7.52
2022-11-16T19:48:28.423Z,7.56
2022-11-16T19:50:31.231Z,8.72
2022-11-16T19:52:34.004Z,-2.11
2022-11-16T19:54:36.771Z,6.98
2022-11-16T19:56:39.698Z,4.90
2022-11-16T19:58:43.032Z,8.23
2022-11-16T20:00:45.840Z,7.73
2022-11-16T20:02:48.628Z,8.65
2022-11-16T20:04:53.345Z,8.68
2022-11-16T20:06:56.160Z,6.77
2022-11-16T20:09:00.732Z,8.69
2022-11-16T20:11:11.190Z,6.96
2022-11-16T20:13:13.935Z,8.65
2022-11-16T20:15:16.765Z,6.76
2022-11-16T20:17:19.523Z,0.56
2022-11-16T20:19:22.130Z,8.50
2022-11-16T20:21:28.816Z,0.76
2022-11-16T20:23:31.669Z,0.56
2022-11-16T20:25:34.493Z,3.45
2022-11-16T20:27:37.347Z,4.26
2022-11-16T20:29:40.033Z,5.10
2022-11-16T20:31:45.239Z,8.24
2022-11-16T20:33:51.565Z,7.01
2022-11-16T20:36:01.271Z,8.31
2022-11-16T20:38:05.355Z,8.35
2022-11-16T20:40:09.058Z,6.33
2022-11-16T20:42:11.789Z,6.93
2022-11-16T20:44:18.210Z,7.25
2022-11-16T20:46:22.831Z,5.18
2022-11-16T20:48:25.517Z,5.25
2022-11-16T20:50:28.182Z,5.91
2022-11-16T20:52:30.931Z,8.01
2022-11-16T20:54:35.051Z,7.92
2022-11-16T20:56:37.836Z,7.91
2022-11-16T20:58:41.411Z,6.92
2022-11-16T21:00:44.537Z,2.93
2022-11-16T21:02:47.233Z,7.94
2022-11-16T21:04:49.960Z,7.97
2022-11-16T21:06:52.783Z,6.07
2022-11-16T21:08:56.215Z,5.89
2022-11-16T21:11:00.304Z,7.97
2022-11-16T21:13:20.611Z,7.92
2022-11-16T21:15:23.324Z,7.96
2022-11-16T21:17:26.051Z,7.97
2022-11-16T21:19:28.752Z,7.98
2022-11-16T21:21:32.082Z,4.67
2022-11-16T21:23:36.943Z,7.84
2022-11-16T21:25:39.881Z,7.85
2022-11-16T21:27:43.981Z,7.94
2022-11-16T21:29:46.691Z,7.98
2022-11-16T21:31:49.896Z,6.25
2022-11-16T21:33:53.516Z,5.16
2022-11-16T21:35:56.910Z,8.13
2022-11-16T21:37:59.657Z,8.11
2022-11-16T21:40:02.377Z,8.05
2022-11-16T21:42:05.658Z,8.10
2022-11-16T21:44:09.681Z,3.95
2022-11-16T21:46:13.726Z,8.02
2022-11-16T21:48:16.948Z,8.06
2022-11-16T21:50:35.007Z,8.07
2022-11-16T21:52:37.746Z,8.09
2022-11-16T21:54:48.198Z,8.12
2022-11-16T21:56:50.919Z,8.11
2022-11-16T21:58:54.724Z,8.18
2022-11-16T22:01:00.250Z,8.20
2022-11-16T22:03:03.119Z,6.74
2022-11-16T22:05:24.179Z,8.28
2022-11-16T22:07:36.814Z,8.29
2022-11-16T22:09:39.689Z,8.24
2022-11-16T22:11:42.396Z,8.40
2022-11-16T22:13:45.529Z,8.41
2022-11-16T22:15:49.488Z,7.51
2022-11-16T22:17:53.886Z,8.39
2022-11-16T22:19:56.665Z,7.25
2022-11-16T22:21:59.917Z,8.38
2022-11-16T22:24:02.878Z,8.45
2022-11-16T22:26:08.424Z,8.51
2022-11-16T22:28:20.791Z,8.57
2022-11-16T22:30:24.038Z,7.71
2022-11-16T22:32:26.835Z,2.02
2022-11-16T22:34:30.977Z,5.91
2022-11-16T22:36:33.784Z,8.74
2022-11-16T22:38:36.532Z,8.78
2022-11-16T22:40:39.320Z,8.85
2022-11-16T22:42:42.042Z,8.87
2022-11-16T22:44:44.966Z,8.87
2022-11-16T22:46:49.417Z,8.89
2022-11-16T22:48:52.174Z,8.83
2022-11-16T22:51:04.693Z,8.84
2022-11-16T22:53:07.441Z,1.80
2022-11-16T22:55:10.365Z,7.60
2022-11-16T22:57:13.085Z,8.91
2022-11-16T22:59:15.943Z,8.91
2022-11-16T23:01:19.218Z,8.49
2022-11-16T23:03:22.053Z,8.87
2022-11-16T23:05:24.916Z,8.86
2022-11-16T23:07:29.121Z,2.38
2022-11-16T23:09:32.638Z,8.84
2022-11-16T23:11:52.985Z,8.31
2022-11-16T23:14:13.409Z,8.76
2022-11-16T23:16:16.182Z,6.38
2022-11-16T23:18:19.777Z,3.53
2022-11-16T23:20:40.051Z,8.85
2022-11-16T23:23:01.808Z,8.84
2022-11-16T23:25:23.613Z,6.76
2022-11-16T23:27:32.286Z,1.59
2022-11-16T23:29:35.096Z,6.30
2022-11-16T23:31:38.326Z,7.18
2022-11-16T23:33:47.813Z,5.19
2022-11-16T23:35:50.571Z,2.13
2022-11-16T23:37:56.702Z,8.64
2022-11-16T23:39:59.538Z,8.76
2022-11-16T23:42:19.881Z,8.84
2022-11-16T23:44:22.756Z,8.83
2022-11-16T23:46:25.727Z,6.90
2022-11-16T23:48:28.460Z,6.43
2022-11-16T23:50:31.211Z,8.82
2022-11-16T23:52:33.935Z,8.87
2022-11-16T23:54:38.028Z,4.38
2022-11-16T23:56:40.706Z,5.09
2022-11-16T23:58:43.423Z,6.05
